sensor_id;sensor_type;location;lat;lon;timestamp;P1;durP1;ratioP1;P2;durP2;ratioP2
1811;SDS011;904;47.814;11.134;2024-03-23T00:59:22;5.30;;;2.88;;
1811;SDS011;904;47.814;11.134;2024-03-23T01:05:13;3.25;;;2.65;;
1811;SDS011;904;47.814;11.134;2024-03-23T01:07:40;4.45;;;2.85;;
1811;SDS011;904;47.814;11.134;2024-03-23T01:13:04;4.32;;;2.85;;
1811;SDS011;904;47.814;11.134;2024-03-23T01:15:31;5.70;;;2.95;;
1811;SDS011;904;47.814;11.134;2024-03-23T01:21:20;5.03;;;2.85;;
1811;SDS011;904;47.814;11.134;2024-03-23T01:30:39;4.50;;;2.92;;
1811;SDS011;904;47.814;11.134;2024-03-23T01:33:06;6.10;;;3.00;;
1811;SDS011;904;47.814;11.134;2024-03-23T01:41:49;4.28;;;2.97;;
1811;SDS011;904;47.814;11.134;2024-03-23T01:47:39;5.15;;;2.70;;
1811;SDS011;904;47.814;11.134;2024-03-23T01:50:07;3.55;;;2.85;;
1811;SDS011;904;47.814;11.134;2024-03-23T01:52:33;8.25;;;3.03;;
1811;SDS011;904;47.814;11.134;2024-03-23T01:55:00;5.60;;;2.67;;
1811;SDS011;904;47.814;11.134;2024-03-23T01:57:26;3.63;;;2.50;;
1811;SDS011;904;47.814;11.134;2024-03-23T01:59:53;8.13;;;2.95;;
1811;SDS011;904;47.814;11.134;2024-03-23T02:06:08;4.22;;;3.05;;
1811;SDS011;904;47.814;11.134;2024-03-23T02:08:35;3.45;;;2.67;;
1811;SDS011;904;47.814;11.134;2024-03-23T02:11:01;4.72;;;2.70;;
1811;SDS011;904;47.814;11.134;2024-03-23T02:16:34;4.15;;;1.80;;
1811;SDS011;904;47.814;11.134;2024-03-23T02:19:02;4.13;;;2.83;;
1811;SDS011;904;47.814;11.134;2024-03-23T02:24:52;4.50;;;2.33;;
1811;SDS011;904;47.814;11.134;2024-03-23T02:30:59;5.82;;;2.95;;
1811;SDS011;904;47.814;11.134;2024-03-23T02:39:53;3.70;;;1.90;;
1811;SDS011;904;47.814;11.134;2024-03-23T02:42:21;4.82;;;2.65;;
1811;SDS011;904;47.814;11.134;2024-03-23T02:44:47;4.93;;;2.58;;
1811;SDS011;904;47.814;11.134;2024-03-23T02:47:14;5.30;;;2.67;;
1811;SDS011;904;47.814;11.134;2024-03-23T02:49:40;3.83;;;2.40;;
1811;SDS011;904;47.814;11.134;2024-03-23T02:52:08;3.47;;;2.05;;
1811;SDS011;904;47.814;11.134;2024-03-23T02:54:34;6.85;;;1.95;;
1811;SDS011;904;47.814;11.134;2024-03-23T02:57:02;3.75;;;2.30;;
1811;SDS011;904;47.814;11.134;2024-03-23T02:59:28;4.10;;;2.22;;
1811;SDS011;904;47.814;11.134;2024-03-23T03:01:55;3.55;;;1.88;;
1811;SDS011;904;47.814;11.134;2024-03-23T03:04:21;3.17;;;2.20;;
1811;SDS011;904;47.814;11.134;2024-03-23T03:06:48;3.45;;;2.20;;
1811;SDS011;904;47.814;11.134;2024-03-23T03:09:14;3.35;;;1.90;;
1811;SDS011;904;47.814;11.134;2024-03-23T03:11:41;4.13;;;2.55;;
1811;SDS011;904;47.814;11.134;2024-03-23T03:14:09;4.03;;;2.15;;
1811;SDS011;904;47.814;11.134;2024-03-23T03:16:36;4.25;;;2.20;;
1811;SDS011;904;47.814;11.134;2024-03-23T03:19:02;6.25;;;2.45;;
1811;SDS011;904;47.814;11.134;2024-03-23T03:21:29;4.75;;;2.60;;
1811;SDS011;904;47.814;11.134;2024-03-23T03:23:55;6.00;;;2.00;;
1811;SDS011;904;47.814;11.134;2024-03-23T03:26:22;6.20;;;2.80;;
1811;SDS011;904;47.814;11.134;2024-03-23T03:28:49;3.05;;;2.10;;
1811;SDS011;904;47.814;11.134;2024-03-23T03:31:18;3.38;;;2.00;;
1811;SDS011;904;47.814;11.134;2024-03-23T03:33:44;3.65;;;1.90;;
1811;SDS011;904;47.814;11.134;2024-03-23T03:36:11;3.10;;;2.00;;
1811;SDS011;904;47.814;11.134;2024-03-23T03:38:37;3.50;;;2.08;;
1811;SDS011;904;47.814;11.134;2024-03-23T03:41:04;4.57;;;2.55;;
1811;SDS011;904;47.814;11.134;2024-03-23T03:43:31;3.67;;;2.35;;
1811;SDS011;904;47.814;11.134;2024-03-23T03:45:58;4.40;;;2.53;;
1811;SDS011;904;47.814;11.134;2024-03-23T03:48:26;5.97;;;2.30;;
1811;SDS011;904;47.814;11.134;2024-03-23T03:50:54;3.50;;;2.17;;
1811;SDS011;904;47.814;11.134;2024-03-23T03:53:20;4.78;;;2.30;;
1811;SDS011;904;47.814;11.134;2024-03-23T03:55:47;4.63;;;2.20;;
1811;SDS011;904;47.814;11.134;2024-03-23T03:58:13;4.23;;;2.60;;
1811;SDS011;904;47.814;11.134;2024-03-23T04:00:40;4.63;;;2.58;;
1811;SDS011;904;47.814;11.134;2024-03-23T04:03:06;3.33;;;1.83;;
1811;SDS011;904;47.814;11.134;2024-03-23T04:05:35;3.53;;;1.73;;
1811;SDS011;904;47.814;11.134;2024-03-23T04:08:01;4.97;;;2.38;;
1811;SDS011;904;47.814;11.134;2024-03-23T04:10:28;3.92;;;2.10;;
1811;SDS011;904;47.814;11.134;2024-03-23T04:12:54;4.07;;;1.77;;
1811;SDS011;904;47.814;11.134;2024-03-23T04:15:22;4.82;;;2.40;;
1811;SDS011;904;47.814;11.134;2024-03-23T04:17:48;4.65;;;2.15;;
1811;SDS011;904;47.814;11.134;2024-03-23T04:20:15;4.10;;;2.28;;
1811;SDS011;904;47.814;11.134;2024-03-23T04:22:43;4.35;;;2.03;;
1811;SDS011;904;47.814;11.134;2024-03-23T04:25:10;3.78;;;2.00;;
1811;SDS011;904;47.814;11.134;2024-03-23T04:27:36;3.33;;;1.92;;
1811;SDS011;904;47.814;11.134;2024-03-23T04:30:04;4.25;;;1.77;;
1811;SDS011;904;47.814;11.134;2024-03-23T04:32:35;4.15;;;2.22;;
1811;SDS011;904;47.814;11.134;2024-03-23T04:35:02;6.43;;;2.10;;
1811;SDS011;904;47.814;11.134;2024-03-23T04:37:31;3.60;;;1.90;;
1811;SDS011;904;47.814;11.134;2024-03-23T04:40:00;3.22;;;1.63;;
1811;SDS011;904;47.814;11.134;2024-03-23T04:42:28;3.05;;;1.75;;
1811;SDS011;904;47.814;11.134;2024-03-23T04:44:55;2.70;;;1.40;;
1811;SDS011;904;47.814;11.134;2024-03-23T04:47:22;4.68;;;2.00;;
1811;SDS011;904;47.814;11.134;2024-03-23T04:56:35;4.72;;;2.08;;
1811;SDS011;904;47.814;11.134;2024-03-23T05:02:16;6.38;;;2.97;;
1811;SDS011;904;47.814;11.134;2024-03-23T05:04:43;4.75;;;2.80;;
1811;SDS011;904;47.814;11.134;2024-03-23T05:07:09;4.75;;;2.60;;
1811;SDS011;904;47.814;11.134;2024-03-23T05:09:36;5.43;;;2.70;;
1811;SDS011;904;47.814;11.134;2024-03-23T05:12:04;3.65;;;1.83;;
1811;SDS011;904;47.814;11.134;2024-03-23T05:14:31;3.67;;;2.05;;
1811;SDS011;904;47.814;11.134;2024-03-23T05:16:57;3.63;;;1.75;;
1811;SDS011;904;47.814;11.134;2024-03-23T05:19:25;2.55;;;1.25;;
1811;SDS011;904;47.814;11.134;2024-03-23T05:21:51;3.25;;;1.35;;
1811;SDS011;904;47.814;11.134;2024-03-23T05:27:39;2.95;;;1.50;;
1811;SDS011;904;47.814;11.134;2024-03-23T05:33:27;2.85;;;1.40;;
1811;SDS011;904;47.814;11.134;2024-03-23T05:39:16;2.65;;;1.35;;
1811;SDS011;904;47.814;11.134;2024-03-23T05:45:07;2.72;;;1.20;;
1811;SDS011;904;47.814;11.134;2024-03-23T05:50:56;2.40;;;1.42;;
1811;SDS011;904;47.814;11.134;2024-03-23T05:56:45;4.90;;;1.90;;
1811;SDS011;904;47.814;11.134;2024-03-23T05:59:12;4.05;;;2.40;;
1811;SDS011;904;47.814;11.134;2024-03-23T06:01:40;4.22;;;2.35;;
1811;SDS011;904;47.814;11.134;2024-03-23T06:04:07;4.05;;;2.15;;
1811;SDS011;904;47.814;11.134;2024-03-23T06:06:33;3.53;;;2.10;;
1811;SDS011;904;47.814;11.134;2024-03-23T06:12:21;3.03;;;1.60;;
1811;SDS011;904;47.814;11.134;2024-03-23T06:14:48;4.43;;;2.25;;
1811;SDS011;904;47.814;11.134;2024-03-23T06:17:16;3.40;;;1.90;;
1811;SDS011;904;47.814;11.134;2024-03-23T06:22:47;4.68;;;2.90;;
1811;SDS011;904;47.814;11.134;2024-03-23T06:25:13;4.85;;;2.78;;
1811;SDS011;904;47.814;11.134;2024-03-23T06:27:40;4.70;;;2.78;;
1811;SDS011;904;47.814;11.134;2024-03-23T06:30:07;3.80;;;2.30;;
1811;SDS011;904;47.814;11.134;2024-03-23T06:32:36;5.32;;;2.38;;
1811;SDS011;904;47.814;11.134;2024-03-23T06:35:02;7.25;;;2.20;;
1811;SDS011;904;47.814;11.134;2024-03-23T06:40:55;5.90;;;3.20;;
1811;SDS011;904;47.814;11.134;2024-03-23T06:43:23;5.03;;;2.70;;
1811;SDS011;904;47.814;11.134;2024-03-23T06:49:12;2.97;;;1.30;;
1811;SDS011;904;47.814;11.134;2024-03-23T06:51:42;3.23;;;1.60;;
1811;SDS011;904;47.814;11.134;2024-03-23T06:54:10;4.10;;;1.87;;
1811;SDS011;904;47.814;11.134;2024-03-23T06:56:37;2.93;;;1.30;;
1811;SDS011;904;47.814;11.134;2024-03-23T06:59:03;3.60;;;1.40;;
1811;SDS011;904;47.814;11.134;2024-03-23T07:04:38;3.20;;;1.40;;
1811;SDS011;904;47.814;11.134;2024-03-23T07:07:05;2.57;;;1.40;;
1811;SDS011;904;47.814;11.134;2024-03-23T07:09:47;2.20;;;1.00;;
1811;SDS011;904;47.814;11.134;2024-03-23T07:12:14;2.30;;;1.20;;
1811;SDS011;904;47.814;11.134;2024-03-23T07:14:40;3.43;;;1.40;;
1811;SDS011;904;47.814;11.134;2024-03-23T07:17:07;2.50;;;1.20;;
1811;SDS011;904;47.814;11.134;2024-03-23T07:19:33;2.70;;;1.17;;
1811;SDS011;904;47.814;11.134;2024-03-23T07:22:03;4.10;;;1.70;;
1811;SDS011;904;47.814;11.134;2024-03-23T07:24:31;2.90;;;1.50;;
1811;SDS011;904;47.814;11.134;2024-03-23T07:26:58;3.37;;;1.50;;
1811;SDS011;904;47.814;11.134;2024-03-23T07:29:24;3.73;;;1.63;;
1811;SDS011;904;47.814;11.134;2024-03-23T07:31:51;3.30;;;1.20;;
1811;SDS011;904;47.814;11.134;2024-03-23T07:34:17;4.13;;;1.80;;
1811;SDS011;904;47.814;11.134;2024-03-23T07:39:40;3.30;;;1.60;;
1811;SDS011;904;47.814;11.134;2024-03-23T07:42:07;2.87;;;1.80;;
1811;SDS011;904;47.814;11.134;2024-03-23T07:44:48;4.60;;;2.30;;
1811;SDS011;904;47.814;11.134;2024-03-23T07:47:26;3.30;;;2.17;;
1811;SDS011;904;47.814;11.134;2024-03-23T07:49:52;4.60;;;2.03;;
1811;SDS011;904;47.814;11.134;2024-03-23T07:58:20;3.70;;;2.03;;
1811;SDS011;904;47.814;11.134;2024-03-23T08:00:46;4.17;;;2.20;;
1811;SDS011;904;47.814;11.134;2024-03-23T08:03:19;3.50;;;2.57;;
1811;SDS011;904;47.814;11.134;2024-03-23T08:05:45;3.13;;;2.17;;
1811;SDS011;904;47.814;11.134;2024-03-23T08:08:13;3.17;;;2.17;;
1811;SDS011;904;47.814;11.134;2024-03-23T08:10:46;4.30;;;2.50;;
1811;SDS011;904;47.814;11.134;2024-03-23T08:13:51;3.70;;;1.53;;
1811;SDS011;904;47.814;11.134;2024-03-23T08:16:18;3.90;;;2.13;;
1811;SDS011;904;47.814;11.134;2024-03-23T08:18:44;2.70;;;1.23;;
1811;SDS011;904;47.814;11.134;2024-03-23T08:21:11;2.90;;;1.63;;
1811;SDS011;904;47.814;11.134;2024-03-23T08:23:37;2.93;;;1.23;;
1811;SDS011;904;47.814;11.134;2024-03-23T08:26:05;2.23;;;1.30;;
1811;SDS011;904;47.814;11.134;2024-03-23T08:35:59;2.03;;;0.97;;
1811;SDS011;904;47.814;11.134;2024-03-23T08:41:48;2.70;;;1.37;;
1811;SDS011;904;47.814;11.134;2024-03-23T08:44:17;2.73;;;1.40;;
1811;SDS011;904;47.814;11.134;2024-03-23T08:46:43;2.43;;;1.37;;
1811;SDS011;904;47.814;11.134;2024-03-23T08:49:23;2.97;;;1.70;;
1811;SDS011;904;47.814;11.134;2024-03-23T08:51:51;2.37;;;1.20;;
1811;SDS011;904;47.814;11.134;2024-03-23T08:54:19;3.63;;;1.60;;
1811;SDS011;904;47.814;11.134;2024-03-23T08:56:49;4.00;;;1.30;;
1811;SDS011;904;47.814;11.134;2024-03-23T08:59:17;2.77;;;1.70;;
1811;SDS011;904;47.814;11.134;2024-03-23T09:01:45;4.83;;;2.37;;
1811;SDS011;904;47.814;11.134;2024-03-23T09:04:12;2.53;;;1.47;;
1811;SDS011;904;47.814;11.134;2024-03-23T09:06:39;2.97;;;1.70;;
1811;SDS011;904;47.814;11.134;2024-03-23T09:09:10;3.50;;;1.70;;
1811;SDS011;904;47.814;11.134;2024-03-23T09:15:02;3.00;;;1.90;;
1811;SDS011;904;47.814;11.134;2024-03-23T09:17:30;3.27;;;2.10;;
1811;SDS011;904;47.814;11.134;2024-03-23T09:23:18;2.50;;;1.53;;
1811;SDS011;904;47.814;11.134;2024-03-23T09:28:57;2.83;;;1.73;;
1811;SDS011;904;47.814;11.134;2024-03-23T09:38:34;2.30;;;1.30;;
1811;SDS011;904;47.814;11.134;2024-03-23T09:44:26;3.03;;;1.77;;
1811;SDS011;904;47.814;11.134;2024-03-23T09:46:54;3.47;;;1.30;;
1811;SDS011;904;47.814;11.134;2024-03-23T09:49:35;3.00;;;1.33;;
1811;SDS011;904;47.814;11.134;2024-03-23T09:52:05;2.60;;;1.20;;
1811;SDS011;904;47.814;11.134;2024-03-23T09:57:54;4.23;;;1.37;;
1811;SDS011;904;47.814;11.134;2024-03-23T10:03:59;2.13;;;0.90;;
1811;SDS011;904;47.814;11.134;2024-03-23T10:09:48;2.20;;;0.90;;
1811;SDS011;904;47.814;11.134;2024-03-23T10:12:19;3.45;;;0.98;;
1811;SDS011;904;47.814;11.134;2024-03-23T10:18:17;2.83;;;1.23;;
1811;SDS011;904;47.814;11.134;2024-03-23T10:24:44;1.83;;;0.70;;
1811;SDS011;904;47.814;11.134;2024-03-23T10:27:14;2.25;;;1.10;;
1811;SDS011;904;47.814;11.134;2024-03-23T10:29:41;2.25;;;0.85;;
1811;SDS011;904;47.814;11.134;2024-03-23T10:32:11;2.25;;;0.80;;
1811;SDS011;904;47.814;11.134;2024-03-23T10:34:38;3.10;;;1.10;;
1811;SDS011;904;47.814;11.134;2024-03-23T10:37:11;2.30;;;1.00;;
1811;SDS011;904;47.814;11.134;2024-03-23T10:43:00;2.05;;;0.80;;
1811;SDS011;904;47.814;11.134;2024-03-23T10:48:57;2.30;;;1.15;;
1811;SDS011;904;47.814;11.134;2024-03-23T10:54:52;2.00;;;0.80;;
1811;SDS011;904;47.814;11.134;2024-03-23T10:57:30;1.90;;;0.70;;
1811;SDS011;904;47.814;11.134;2024-03-23T11:03:44;2.38;;;1.00;;
1811;SDS011;904;47.814;11.134;2024-03-23T11:06:48;2.58;;;1.00;;
1811;SDS011;904;47.814;11.134;2024-03-23T11:12:36;2.38;;;1.20;;
1811;SDS011;904;47.814;11.134;2024-03-23T11:15:16;2.90;;;1.27;;
1811;SDS011;904;47.814;11.134;2024-03-23T11:17:42;2.83;;;0.95;;
1811;SDS011;904;47.814;11.134;2024-03-23T11:21:12;2.97;;;1.00;;
1811;SDS011;904;47.814;11.134;2024-03-23T11:27:40;3.22;;;1.05;;
1811;SDS011;904;47.814;11.134;2024-03-23T11:37:05;2.30;;;0.90;;
1811;SDS011;904;47.814;11.134;2024-03-23T11:42:58;2.08;;;0.90;;
1811;SDS011;904;47.814;11.134;2024-03-23T11:48:49;3.28;;;1.02;;
1811;SDS011;904;47.814;11.134;2024-03-23T11:57:44;4.75;;;2.30;;
1811;SDS011;904;47.814;11.134;2024-03-23T12:02:59;2.88;;;1.27;;
1811;SDS011;904;47.814;11.134;2024-03-23T12:05:27;2.63;;;1.10;;
1811;SDS011;904;47.814;11.134;2024-03-23T12:11:15;4.00;;;2.03;;
1811;SDS011;904;47.814;11.134;2024-03-23T12:17:10;5.43;;;2.30;;
1811;SDS011;904;47.814;11.134;2024-03-23T12:19:38;2.65;;;1.33;;
1811;SDS011;904;47.814;11.134;2024-03-23T12:22:04;2.60;;;1.35;;
1811;SDS011;904;47.814;11.134;2024-03-23T12:24:32;4.60;;;2.40;;
1811;SDS011;904;47.814;11.134;2024-03-23T12:30:24;3.38;;;1.30;;
1811;SDS011;904;47.814;11.134;2024-03-23T12:36:25;5.15;;;1.20;;
1811;SDS011;904;47.814;11.134;2024-03-23T12:38:54;3.88;;;1.00;;
1811;SDS011;904;47.814;11.134;2024-03-23T12:41:20;3.20;;;1.27;;
1811;SDS011;904;47.814;11.134;2024-03-23T12:46:24;2.10;;;0.90;;
1811;SDS011;904;47.814;11.134;2024-03-23T12:48:51;7.93;;;2.60;;
1811;SDS011;904;47.814;11.134;2024-03-23T12:54:19;2.92;;;1.35;;
1811;SDS011;904;47.814;11.134;2024-03-23T13:03:33;2.60;;;1.20;;
1811;SDS011;904;47.814;11.134;2024-03-23T13:12:44;2.85;;;1.30;;
1811;SDS011;904;47.814;11.134;2024-03-23T13:15:11;2.97;;;1.50;;
1811;SDS011;904;47.814;11.134;2024-03-23T13:17:37;3.13;;;1.17;;
1811;SDS011;904;47.814;11.134;2024-03-23T13:23:26;3.13;;;1.55;;
1811;SDS011;904;47.814;11.134;2024-03-23T13:25:53;3.53;;;1.30;;
1811;SDS011;904;47.814;11.134;2024-03-23T13:28:22;3.30;;;1.63;;
1811;SDS011;904;47.814;11.134;2024-03-23T13:33:44;5.68;;;1.75;;
1811;SDS011;904;47.814;11.134;2024-03-23T13:39:03;4.22;;;1.55;;
1811;SDS011;904;47.814;11.134;2024-03-23T13:41:35;4.82;;;3.05;;
1811;SDS011;904;47.814;11.134;2024-03-23T13:44:05;5.25;;;3.10;;
1811;SDS011;904;47.814;11.134;2024-03-23T13:46:31;4.00;;;1.60;;
1811;SDS011;904;47.814;11.134;2024-03-23T13:55:24;3.70;;;2.15;;
1811;SDS011;904;47.814;11.134;2024-03-23T14:01:15;4.95;;;2.10;;
1811;SDS011;904;47.814;11.134;2024-03-23T14:07:08;4.55;;;1.92;;
1811;SDS011;904;47.814;11.134;2024-03-23T14:12:48;4.07;;;1.75;;
1811;SDS011;904;47.814;11.134;2024-03-23T14:15:15;7.50;;;1.80;;
1811;SDS011;904;47.814;11.134;2024-03-23T14:17:44;3.58;;;1.30;;
1811;SDS011;904;47.814;11.134;2024-03-23T14:20:14;2.95;;;1.50;;
1811;SDS011;904;47.814;11.134;2024-03-23T14:22:41;6.68;;;2.00;;
1811;SDS011;904;47.814;11.134;2024-03-23T14:25:09;5.53;;;1.90;;
1811;SDS011;904;47.814;11.134;2024-03-23T14:27:43;5.57;;;1.83;;
1811;SDS011;904;47.814;11.134;2024-03-23T14:30:11;4.38;;;1.40;;
1811;SDS011;904;47.814;11.134;2024-03-23T14:39:31;3.60;;;1.63;;
1811;SDS011;904;47.814;11.134;2024-03-23T14:41:59;5.35;;;1.48;;
1811;SDS011;904;47.814;11.134;2024-03-23T14:44:26;4.15;;;1.80;;
1811;SDS011;904;47.814;11.134;2024-03-23T14:46:54;3.17;;;1.50;;
1811;SDS011;904;47.814;11.134;2024-03-23T14:49:20;2.33;;;1.20;;
1811;SDS011;904;47.814;11.134;2024-03-23T14:51:47;2.63;;;1.70;;
1811;SDS011;904;47.814;11.134;2024-03-23T14:54:13;4.17;;;2.23;;
1811;SDS011;904;47.814;11.134;2024-03-23T14:56:42;2.80;;;1.60;;
1811;SDS011;904;47.814;11.134;2024-03-23T14:59:08;3.00;;;1.40;;
1811;SDS011;904;47.814;11.134;2024-03-23T15:01:35;6.45;;;2.50;;
1811;SDS011;904;47.814;11.134;2024-03-23T15:04:01;4.30;;;2.20;;
1811;SDS011;904;47.814;11.134;2024-03-23T15:06:29;3.22;;;1.48;;
1811;SDS011;904;47.814;11.134;2024-03-23T15:12:10;3.35;;;2.00;;
1811;SDS011;904;47.814;11.134;2024-03-23T15:14:55;5.88;;;1.20;;
1811;SDS011;904;47.814;11.134;2024-03-23T15:20:51;2.72;;;1.27;;
1811;SDS011;904;47.814;11.134;2024-03-23T15:26:37;3.65;;;2.25;;
1811;SDS011;904;47.814;11.134;2024-03-23T15:29:11;6.25;;;1.83;;
1811;SDS011;904;47.814;11.134;2024-03-23T15:31:48;3.60;;;2.40;;
1811;SDS011;904;47.814;11.134;2024-03-23T15:34:36;4.82;;;2.25;;
1811;SDS011;904;47.814;11.134;2024-03-23T15:37:03;4.07;;;2.40;;
1811;SDS011;904;47.814;11.134;2024-03-23T15:39:29;4.57;;;2.40;;
1811;SDS011;904;47.814;11.134;2024-03-23T15:41:57;4.10;;;2.70;;
1811;SDS011;904;47.814;11.134;2024-03-23T15:47:46;2.75;;;1.60;;
1811;SDS011;904;47.814;11.134;2024-03-23T15:53:17;6.30;;;1.95;;
1811;SDS011;904;47.814;11.134;2024-03-23T15:55:44;2.60;;;1.60;;
1811;SDS011;904;47.814;11.134;2024-03-23T15:58:11;5.00;;;2.20;;
1811;SDS011;904;47.814;11.134;2024-03-23T16:00:39;7.57;;;4.43;;
1811;SDS011;904;47.814;11.134;2024-03-23T16:03:08;4.28;;;2.20;;
1811;SDS011;904;47.814;11.134;2024-03-23T16:05:35;6.97;;;4.35;;
1811;SDS011;904;47.814;11.134;2024-03-23T16:08:07;6.95;;;2.13;;
1811;SDS011;904;47.814;11.134;2024-03-23T16:10:36;3.50;;;1.90;;
1811;SDS011;904;47.814;11.134;2024-03-23T16:13:02;4.63;;;2.25;;
1811;SDS011;904;47.814;11.134;2024-03-23T16:15:30;4.72;;;3.05;;
1811;SDS011;904;47.814;11.134;2024-03-23T16:17:56;3.85;;;2.03;;
1811;SDS011;904;47.814;11.134;2024-03-23T16:20:25;5.63;;;2.60;;
1811;SDS011;904;47.814;11.134;2024-03-23T16:22:51;5.53;;;3.50;;
1811;SDS011;904;47.814;11.134;2024-03-23T16:25:18;5.00;;;2.90;;
1811;SDS011;904;47.814;11.134;2024-03-23T16:27:45;3.72;;;2.63;;
1811;SDS011;904;47.814;11.134;2024-03-23T16:30:13;5.35;;;2.30;;
1811;SDS011;904;47.814;11.134;2024-03-23T16:32:40;6.18;;;3.13;;
1811;SDS011;904;47.814;11.134;2024-03-23T16:38:32;6.75;;;3.70;;
1811;SDS011;904;47.814;11.134;2024-03-23T16:41:01;8.95;;;5.00;;
1811;SDS011;904;47.814;11.134;2024-03-23T16:46:00;7.78;;;4.57;;
1811;SDS011;904;47.814;11.134;2024-03-23T16:48:29;5.45;;;3.67;;
1811;SDS011;904;47.814;11.134;2024-03-23T16:54:20;3.60;;;1.90;;
1811;SDS011;904;47.814;11.134;2024-03-23T16:56:49;5.20;;;2.78;;
1811;SDS011;904;47.814;11.134;2024-03-23T17:02:37;6.25;;;2.33;;
1811;SDS011;904;47.814;11.134;2024-03-23T17:05:04;3.92;;;2.50;;
1811;SDS011;904;47.814;11.134;2024-03-23T17:07:31;4.32;;;2.65;;
1811;SDS011;904;47.814;11.134;2024-03-23T17:13:22;4.07;;;2.60;;
1811;SDS011;904;47.814;11.134;2024-03-23T17:15:49;9.48;;;3.67;;
1811;SDS011;904;47.814;11.134;2024-03-23T17:21:37;3.95;;;2.30;;
1811;SDS011;904;47.814;11.134;2024-03-23T17:24:07;5.20;;;2.50;;
1811;SDS011;904;47.814;11.134;2024-03-23T17:29:59;4.25;;;2.28;;
1811;SDS011;904;47.814;11.134;2024-03-23T17:35:37;4.13;;;1.90;;
1811;SDS011;904;47.814;11.134;2024-03-23T17:38:04;3.90;;;2.30;;
1811;SDS011;904;47.814;11.134;2024-03-23T17:40:36;3.35;;;1.83;;
1811;SDS011;904;47.814;11.134;2024-03-23T17:46:26;10.50;;;8.10;;
1811;SDS011;904;47.814;11.134;2024-03-23T17:49:02;5.15;;;3.42;;
1811;SDS011;904;47.814;11.134;2024-03-23T17:52:08;6.53;;;3.92;;
1811;SDS011;904;47.814;11.134;2024-03-23T17:57:59;21.83;;;14.13;;
1811;SDS011;904;47.814;11.134;2024-03-23T18:03:52;10.60;;;5.88;;
1811;SDS011;904;47.814;11.134;2024-03-23T18:09:41;10.02;;;5.28;;
1811;SDS011;904;47.814;11.134;2024-03-23T18:18:47;13.20;;;9.82;;
1811;SDS011;904;47.814;11.134;2024-03-23T18:21:18;18.17;;;9.57;;
1811;SDS011;904;47.814;11.134;2024-03-23T18:30:20;4.35;;;2.92;;
1811;SDS011;904;47.814;11.134;2024-03-23T18:32:47;4.88;;;2.30;;
1811;SDS011;904;47.814;11.134;2024-03-23T18:38:45;7.07;;;3.08;;
1811;SDS011;904;47.814;11.134;2024-03-23T18:41:14;4.80;;;2.92;;
1811;SDS011;904;47.814;11.134;2024-03-23T18:43:45;5.72;;;3.05;;
1811;SDS011;904;47.814;11.134;2024-03-23T18:49:35;4.85;;;3.10;;
1811;SDS011;904;47.814;11.134;2024-03-23T18:52:04;5.00;;;2.58;;
1811;SDS011;904;47.814;11.134;2024-03-23T18:57:54;3.88;;;1.95;;
1811;SDS011;904;47.814;11.134;2024-03-23T19:00:23;4.20;;;2.05;;
1811;SDS011;904;47.814;11.134;2024-03-23T19:02:51;4.38;;;2.03;;
1811;SDS011;904;47.814;11.134;2024-03-23T19:05:18;5.85;;;2.13;;
1811;SDS011;904;47.814;11.134;2024-03-23T19:07:44;5.37;;;3.30;;
1811;SDS011;904;47.814;11.134;2024-03-23T19:10:11;8.82;;;3.00;;
1811;SDS011;904;47.814;11.134;2024-03-23T19:12:37;2.80;;;1.80;;
1811;SDS011;904;47.814;11.134;2024-03-23T19:15:08;4.13;;;2.55;;
1811;SDS011;904;47.814;11.134;2024-03-23T19:17:34;7.80;;;3.72;;
1811;SDS011;904;47.814;11.134;2024-03-23T19:20:01;6.80;;;3.03;;
1811;SDS011;904;47.814;11.134;2024-03-23T19:22:29;6.82;;;3.30;;
1811;SDS011;904;47.814;11.134;2024-03-23T19:24:59;4.30;;;2.30;;
1811;SDS011;904;47.814;11.134;2024-03-23T19:27:25;3.57;;;1.70;;
1811;SDS011;904;47.814;11.134;2024-03-23T19:29:55;5.03;;;1.95;;
1811;SDS011;904;47.814;11.134;2024-03-23T19:32:23;6.22;;;3.83;;
1811;SDS011;904;47.814;11.134;2024-03-23T19:35:09;6.75;;;4.13;;
1811;SDS011;904;47.814;11.134;2024-03-23T19:41:01;5.97;;;2.58;;
1811;SDS011;904;47.814;11.134;2024-03-23T19:43:30;5.47;;;3.78;;
1811;SDS011;904;47.814;11.134;2024-03-23T19:49:09;6.50;;;3.70;;
1811;SDS011;904;47.814;11.134;2024-03-23T19:51:48;8.75;;;3.95;;
1811;SDS011;904;47.814;11.134;2024-03-23T19:54:15;6.70;;;3.88;;
1811;SDS011;904;47.814;11.134;2024-03-23T19:59:27;6.72;;;3.30;;
1811;SDS011;904;47.814;11.134;2024-03-23T20:01:54;9.00;;;4.65;;
1811;SDS011;904;47.814;11.134;2024-03-23T20:07:46;7.20;;;4.57;;
1811;SDS011;904;47.814;11.134;2024-03-23T20:10:13;5.28;;;3.70;;
1811;SDS011;904;47.814;11.134;2024-03-23T20:12:39;6.82;;;3.80;;
1811;SDS011;904;47.814;11.134;2024-03-23T20:15:07;6.10;;;3.30;;
1811;SDS011;904;47.814;11.134;2024-03-23T20:17:33;7.50;;;3.03;;
1811;SDS011;904;47.814;11.134;2024-03-23T20:20:03;4.28;;;2.30;;
1811;SDS011;904;47.814;11.134;2024-03-23T20:29:17;3.85;;;1.05;;
1811;SDS011;904;47.814;11.134;2024-03-23T20:35:08;2.83;;;1.20;;
1811;SDS011;904;47.814;11.134;2024-03-23T20:37:51;3.15;;;1.20;;
1811;SDS011;904;47.814;11.134;2024-03-23T20:47:04;3.05;;;1.20;;
1811;SDS011;904;47.814;11.134;2024-03-23T20:59:56;4.15;;;0.80;;
1811;SDS011;904;47.814;11.134;2024-03-23T21:09:22;2.28;;;1.00;;
1811;SDS011;904;47.814;11.134;2024-03-23T21:11:52;3.88;;;1.10;;
1811;SDS011;904;47.814;11.134;2024-03-23T21:14:35;2.63;;;1.15;;
1811;SDS011;904;47.814;11.134;2024-03-23T21:17:02;3.92;;;1.17;;
1811;SDS011;904;47.814;11.134;2024-03-23T21:19:28;2.47;;;1.30;;
1811;SDS011;904;47.814;11.134;2024-03-23T21:25:24;2.90;;;0.85;;
1811;SDS011;904;47.814;11.134;2024-03-23T21:27:51;2.10;;;0.85;;
1811;SDS011;904;47.814;11.134;2024-03-23T21:30:18;3.80;;;1.88;;
1811;SDS011;904;47.814;11.134;2024-03-23T21:32:46;4.88;;;1.50;;
1811;SDS011;904;47.814;11.134;2024-03-23T21:35:12;2.80;;;1.27;;
1811;SDS011;904;47.814;11.134;2024-03-23T21:37:39;2.45;;;0.85;;
1811;SDS011;904;47.814;11.134;2024-03-23T21:40:06;2.15;;;0.77;;
1811;SDS011;904;47.814;11.134;2024-03-23T21:42:35;2.40;;;0.90;;
1811;SDS011;904;47.814;11.134;2024-03-23T21:45:01;2.50;;;1.00;;
1811;SDS011;904;47.814;11.134;2024-03-23T21:47:31;2.53;;;1.10;;
1811;SDS011;904;47.814;11.134;2024-03-23T21:49:57;2.05;;;0.90;;
1811;SDS011;904;47.814;11.134;2024-03-23T21:52:24;2.35;;;0.70;;
1811;SDS011;904;47.814;11.134;2024-03-23T21:54:57;2.10;;;0.80;;
1811;SDS011;904;47.814;11.134;2024-03-23T21:57:47;2.05;;;0.80;;
1811;SDS011;904;47.814;11.134;2024-03-23T22:00:13;2.25;;;0.82;;
1811;SDS011;904;47.814;11.134;2024-03-23T22:02:41;2.10;;;0.70;;
1811;SDS011;904;47.814;11.134;2024-03-23T22:08:29;2.20;;;0.82;;
1811;SDS011;904;47.814;11.134;2024-03-23T22:10:57;2.45;;;1.00;;
1811;SDS011;904;47.814;11.134;2024-03-23T22:13:25;1.90;;;0.80;;
1811;SDS011;904;47.814;11.134;2024-03-23T22:15:56;7.38;;;0.98;;
1811;SDS011;904;47.814;11.134;2024-03-23T22:18:23;2.20;;;1.08;;
1811;SDS011;904;47.814;11.134;2024-03-23T22:20:54;2.00;;;0.85;;
1811;SDS011;904;47.814;11.134;2024-03-23T22:23:31;3.10;;;1.10;;
1811;SDS011;904;47.814;11.134;2024-03-23T22:29:21;3.63;;;1.00;;
1811;SDS011;904;47.814;11.134;2024-03-23T22:31:48;3.13;;;0.90;;
1811;SDS011;904;47.814;11.134;2024-03-23T22:34:14;3.20;;;1.00;;
1811;SDS011;904;47.814;11.134;2024-03-23T22:36:41;2.15;;;0.88;;
1811;SDS011;904;47.814;11.134;2024-03-23T22:39:07;4.20;;;1.20;;
1811;SDS011;904;47.814;11.134;2024-03-23T22:41:34;1.90;;;0.73;;
1811;SDS011;904;47.814;11.134;2024-03-23T22:44:00;2.13;;;0.98;;
1811;SDS011;904;47.814;11.134;2024-03-23T22:49:50;8.63;;;1.90;;
1811;SDS011;904;47.814;11.134;2024-03-23T22:52:17;3.85;;;1.55;;
1811;SDS011;904;47.814;11.134;2024-03-23T22:54:43;3.30;;;1.33;;
1811;SDS011;904;47.814;11.134;2024-03-23T23:00:32;5.70;;;1.80;;
1811;SDS011;904;47.814;11.134;2024-03-23T23:02:59;5.63;;;1.80;;
1811;SDS011;904;47.814;11.134;2024-03-23T23:05:27;2.95;;;1.27;;